• Join FlightAware (Why Join?)
  • Login
  • US Flag 
11:29AM EDT


 

Airport Tracker/Info


-or-


 

Live Flight TrackerFlight Track Log ✈ N58EV ✈ 09-Apr-2014 ✈ KVES - KGMU

Flight Track Log - Related Links

Times and Time Zones

All times are in EDT time to prevent confusion due to time zone crossing. See the N58EV flight status page for this flight to view local times or setup timezone preferences in your user account.

Time Position Orientation Groundspeed Altitude Reporting Facility
EDT Latitude Longitude Course Direction KTS MPH feet Rate Location/Type
05:03PM 40.1708 -84.5406 159° South 132 152 2,800  Level Indianapolis Center
05:04PM 40.1369 -84.5233 159° South 152 175 3,700 900 Climbing Indianapolis Center
05:05PM 40.1147 -84.5106 156° South 145 167 4,400 960 Climbing Indianapolis Center
05:06PM 40.0769 -84.4939 161° South 145 167 5,500 720 Climbing Indianapolis Center
05:07PM 40.0297 -84.4725 161° South 145 167 6,000 360 Climbing Indianapolis Center
05:07PM 40.0186 -84.4689 166° South 173 199 6,000  Level Indianapolis Center
05:08PM 39.9814 -84.4508 160° South 169 194 6,000 300 Level Indianapolis Center
05:10PM 39.8828 -84.4111 163° South 184 212 6,900 540 Climbing Indianapolis Center
05:14PM 39.7175 -84.3383 162° South 150 173 9,700 600 Climbing Indianapolis Center
05:15PM 39.6758 -84.3203 162° South 153 176 10,000 60 Climbing Indianapolis Center
05:17PM 39.5686 -84.2742 162° South 182 209 10,000  Level Indianapolis Center
05:18PM 39.5203 -84.2528 161° South 183 211 10,000 300 Level Indianapolis Center
05:19PM 39.4841 -84.2193 162° South  Level FlightAware Approximate
05:20PM 39.4358 -84.1985 162° South  Level FlightAware Approximate
05:20PM 39.4333 -84.2153 162° South 165 190 11,100  Level Indianapolis Center
05:22PM 39.3344 -84.1725 161° South 187 215 11,000 -60 Descending Indianapolis Center
05:23PM 39.2744 -84.1461 161° South 187 215 11,000  Level Indianapolis Center
05:25PM 39.2239 -84.1264 163° South 188 216 11,000  Level Indianapolis Center
05:27PM 39.1219 -84.0825 162° South 191 220 11,000  Level Indianapolis Center
05:28PM 39.0714 -84.0583 160° South 192 221 11,000  Level Indianapolis Center
05:30PM 38.9594 -84.0117 162° South 192 221 11,000  Level Indianapolis Center
05:31PM 38.9083 -83.9897 162° South 193 222 11,000  Level Indianapolis Center
05:34PM 38.7569 -83.9244 158° South 192 221 11,000  Level Indianapolis Center
05:35PM 38.6961 -83.8981 161° South 192 221 11,000  Level Indianapolis Center
05:37PM 38.5964 -83.8575 162° South 192 221 11,000  Level Indianapolis Center
05:40PM 38.4358 -83.7875 161° South 192 221 11,000  Level Indianapolis Center
05:42PM 38.3328 -83.7450 162° South 193 222 11,000  Level Indianapolis Center
05:44PM 38.2208 -83.6983 161° South 194 223 11,000  Level Indianapolis Center
05:45PM 38.1686 -83.6775 163° South 194 223 11,000  Level Indianapolis Center
05:46PM 38.1169 -83.6544 161° South 194 223 11,000  Level Indianapolis Center
05:48PM 38.0117 -83.6125 161° South 197 227 11,000  Level Indianapolis Center
05:49PM 37.9497 -83.5858 161° South 197 227 11,000  Level Indianapolis Center
05:50PM 37.8983 -83.5617 160° South 197 227 11,000  Level Indianapolis Center
05:52PM 37.8448 -83.5395 162° South  Level Estimated
05:52PM 37.7936 -83.5189 162° South 197 227 11,000  Level Indianapolis Center
05:54PM 37.7406 -83.4975 162° South 197 227 11,000  Level Indianapolis Center
05:55PM 37.6797 -83.4719 162° South 197 227 11,000  Level Indianapolis Center
05:56PM 37.6272 -83.4508 162° South 197 227 11,000  Level Indianapolis Center
05:57PM 37.5750 -83.4292 162° South 197 227 11,000  Level Indianapolis Center
05:58PM 37.5231 -83.4072 161° South 197 227 11,000  Level Indianapolis Center
05:59PM 37.4708 -83.3853 162° South 197 227 11,000  Level Indianapolis Center
06:00PM 37.4094 -83.3611 163° South 197 227 11,000  Level Indianapolis Center
06:01PM 37.3569 -83.3392 162° South 197 227 11,000  Level Indianapolis Center
06:02PM 37.3053 -83.3181 162° South 197 227 11,000  Level Indianapolis Center
06:05PM 37.1403 -83.2511 156° South 197 227 11,000  Level Indianapolis Center
06:06PM 37.0875 -83.2300 162° South 197 227 11,000  Level Indianapolis Center
06:07PM 37.0356 -83.2097 163° South 197 227 11,000  Level Indianapolis Center
06:09PM 36.9297 -83.1667 162° South 198 228 11,000  Level Indianapolis Center
06:10PM 36.8689 -83.1417 162° South 198 228 11,000  Level Indianapolis Center
06:11PM 36.8164 -83.1203 162° South 198 228 11,000  Level Indianapolis Center
06:12PM 36.7636 -83.0989 162° South 198 228 11,000  Level Indianapolis Center
06:13PM 36.7106 -83.0789 163° South 198 228 11,000  Level Indianapolis Center
06:14PM 36.6489 -83.0536 162° South 198 228 11,100  Climbing Indianapolis Center
06:17PM 36.5231 -83.0053 163° South 205 236 11,000 -60 Descending Atlanta Center
06:17PM 36.4897 -82.9903 160° South 199 229 11,000  Level Indianapolis Center
06:18PM 36.4372 -82.9683 161° South 199 229 11,000  Level Indianapolis Center
06:19PM 36.3739 -82.9447 163° South 200 230 11,000  Level Indianapolis Center
06:20PM 36.3208 -82.9225 161° South 200 230 11,000  Level Indianapolis Center
06:22PM 36.2575 -82.9006 164° South 205 236 11,000  Level Atlanta Center
06:24PM 36.1528 -82.8583 162° South 205 236 11,000  Level Atlanta Center
06:25PM 36.0983 -82.8361 162° South 205 236 11,000 -60 Level Atlanta Center
06:26PM 36.0439 -82.8139 162° South 205 236 10,900  Descending Atlanta Center
06:27PM 35.9853 -82.7917 163° South 205 236 11,000 -180 Climbing Atlanta Center
06:31PM 35.7631 -82.7053 162° South 210 242 10,100 -240 Descending Atlanta Center
06:32PM 35.7108 -82.6833 161° South 205 236 10,000 -60 Descending Atlanta Center
06:33PM 35.6625 -82.6661 164° South 193 222 10,000  Level Atlanta Center
06:34PM 35.6122 -82.6439 160° South 187 215 10,000  Level Atlanta Center
06:35PM 35.5619 -82.6244 163° South 193 222 10,000  Level Atlanta Center
06:36PM 35.5117 -82.6050 163° South 193 222 10,000  Level Atlanta Center